Uzice, Serbia
Current Conditions -  °F | °C
As of 7:30 AM on Friday 31 Oct 2014 (Local Time) from LYKV Reporting Station
Haze Haze  
Wind Chill:   Ceiling: 3000
Heat Index:   Visibility: 3mi
Dew Point:   Wind: 0mph
Humidity: 100%   Direction: NA
Pressure: 30.33"   Gusts: NA
Location:  43.85°N, 19.85°E
Report Text: LYKV 310530Z 00000KT 5000 BR BKN030 07/07 Q1027 NOSIG
Loading
Personal Weather Stations






























Interactive Weather Map
Tropical Storm Tracking
New forecast layout! Learn more

10-Day Weather Forecast

Advertisements
Track Severe Weather on mobile